Time;durP1;ratioP1;P1;durP2;ratioP2;P2;SDS_P1;SDS_P2;PMS_P1;PMS_P2;Temp;Humidity;BMP_temperature;BMP_pressure;BME280_temperature;BME280_humidity;BME280_pressure;Samples;Min_cycle;Max_cycle;Signal;HPM_P1;HPM_P2
2023/01/30 00:05:41;;;;;;;48.88;21.75;;;2.20;99.90;;;;;;15199758;23;20049;-37
2023/01/30 00:11:43;;;;;;;48.95;21.35;;;2.30;99.90;;;;;;15200177;23;20414;-37
2023/01/30 00:17:45;;;;;;;54.72;24.20;;;2.30;99.90;;;;;;15202863;23;20032;-37
2023/01/30 00:23:47;;;;;;;49.78;22.77;;;2.50;99.90;;;;;;15202168;23;20022;-37
2023/01/30 00:29:49;;;;;;;56.13;24.33;;;2.50;99.90;;;;;;15176602;23;20105;-37
2023/01/30 00:36:04;;;;;;;50.47;23.03;;;2.50;99.90;;;;;;15202943;23;20022;-37
2023/01/30 00:48:27;;;;;;;53.92;24.33;;;2.60;99.90;;;;;;15201925;23;20460;-36
2023/01/30 00:54:29;;;;;;;49.80;22.88;;;2.70;99.90;;;;;;15202198;23;20428;-37
2023/01/30 01:00:32;;;;;;;53.95;23.13;;;2.70;99.90;;;;;;15171563;23;20512;-36
2023/01/30 01:06:37;;;;;;;50.97;24.42;;;2.70;99.90;;;;;;15197191;23;20029;-37
2023/01/30 01:12:39;;;;;;;51.20;22.98;;;2.80;99.90;;;;;;15202066;23;20033;-37
2023/01/30 01:18:41;;;;;;;54.97;25.55;;;2.80;99.90;;;;;;15171756;23;20151;-36
2023/01/30 01:24:43;;;;;;;54.13;24.63;;;2.80;99.90;;;;;;15201040;23;20033;-37
2023/01/30 01:30:45;;;;;;;54.20;24.20;;;2.70;99.90;;;;;;15196381;23;20501;-37
2023/01/30 01:36:48;;;;;;;55.90;24.55;;;2.70;99.90;;;;;;15176341;23;20025;-37
2023/01/30 01:42:55;;;;;;;59.63;25.48;;;2.70;99.90;;;;;;15201496;23;20029;-37
2023/01/30 01:48:59;;;;;;;54.35;24.23;;;2.70;99.90;;;;;;15200227;23;20022;-36
2023/01/30 01:55:04;;;;;;;49.15;21.77;;;2.70;99.90;;;;;;15200767;23;20033;-36
2023/01/30 02:01:07;;;;;;;53.13;24.15;;;2.80;99.90;;;;;;15199325;23;20022;-37
2023/01/30 02:07:09;;;;;;;50.70;24.25;;;2.80;99.90;;;;;;15199549;23;20073;-37
2023/01/30 02:13:11;;;;;;;52.90;24.27;;;2.80;99.90;;;;;;15202106;23;20021;-37
2023/01/30 02:19:45;;;;;;;56.50;25.13;;;2.80;99.90;;;;;;15175990;23;20351;-37
2023/01/30 02:26:09;;;;;;;59.63;26.05;;;2.80;99.90;;;;;;15195618;23;20029;-37
2023/01/30 02:32:25;;;;;;;54.90;24.80;;;2.90;99.90;;;;;;15201185;23;20026;-37
2023/01/30 02:38:49;;;;;;;59.55;25.58;;;3.00;99.90;;;;;;15202605;23;20022;-37
2023/01/30 02:45:11;;;;;;;58.13;25.23;;;3.10;99.90;;;;;;15177739;23;20029;-37
2023/01/30 02:51:16;;;;;;;56.22;24.70;;;3.20;99.90;;;;;;15197884;23;20022;-37
2023/01/30 02:57:23;;;;;;;63.13;28.67;;;3.20;99.90;;;;;;15204739;23;20026;-37
2023/01/30 03:03:31;;;;;;;62.25;29.20;;;3.20;99.90;;;;;;15202806;23;20034;-37
2023/01/30 03:09:48;;;;;;;61.20;28.40;;;3.30;99.90;;;;;;15202128;23;20030;-37
2023/01/30 03:15:56;;;;;;;57.20;26.15;;;3.40;99.90;;;;;;15175852;23;20120;-37
2023/01/30 03:21:58;;;;;;;62.58;29.33;;;3.40;99.90;;;;;;15205323;23;20085;-37
2023/01/30 03:28:02;;;;;;;65.43;28.85;;;3.40;99.90;;;;;;15179218;23;20022;-37
2023/01/30 03:34:04;;;;;;;58.33;25.67;;;3.50;99.90;;;;;;15199035;23;20029;-37
2023/01/30 03:40:07;;;;;;;49.20;24.45;;;3.60;99.90;;;;;;15205002;23;20026;-37
2023/01/30 03:46:09;;;;;;;45.25;21.45;;;3.70;99.90;;;;;;15140499;23;20100;-37
2023/01/30 03:52:11;;;;;;;42.75;20.52;;;3.70;99.90;;;;;;15176942;23;20447;-37
2023/01/30 03:58:13;;;;;;;35.58;18.98;;;3.80;99.90;;;;;;15200557;23;20026;-37
2023/01/30 04:04:15;;;;;;;33.42;18.58;;;3.80;99.90;;;;;;15200162;23;20065;-37
2023/01/30 04:10:18;;;;;;;29.33;16.00;;;3.90;99.90;;;;;;15204709;23;20401;-37
2023/01/30 04:16:26;;;;;;;32.78;16.92;;;3.90;99.90;;;;;;15204326;23;20022;-37
2023/01/30 04:22:28;;;;;;;34.63;17.75;;;4.00;99.90;;;;;;15201641;23;20069;-37
2023/01/30 04:28:30;;;;;;;35.75;17.23;;;4.00;99.90;;;;;;15199796;23;20919;-37
2023/01/30 04:34:32;;;;;;;33.55;16.60;;;4.00;99.90;;;;;;15199465;23;20021;-37
2023/01/30 04:40:33;;;;;;;34.92;17.40;;;4.10;99.90;;;;;;15202219;23;20451;-37
2023/01/30 04:46:35;;;;;;;34.67;18.40;;;4.10;99.90;;;;;;15201728;23;20029;-37
2023/01/30 04:52:37;;;;;;;28.95;17.05;;;4.30;99.90;;;;;;15199788;23;20076;-37
2023/01/30 04:58:40;;;;;;;28.77;15.98;;;4.30;99.90;;;;;;15200919;23;20104;-37
2023/01/30 05:04:42;;;;;;;28.92;14.80;;;4.40;99.90;;;;;;15171303;23;20054;-37
2023/01/30 05:10:44;;;;;;;26.65;14.95;;;4.50;99.90;;;;;;15170868;23;20029;-37
2023/01/30 05:16:46;;;;;;;23.05;12.55;;;4.70;99.90;;;;;;15198961;23;20369;-37
2023/01/30 05:22:48;;;;;;;21.35;11.80;;;4.80;99.90;;;;;;15197226;23;20101;-37
2023/01/30 05:28:53;;;;;;;22.77;12.48;;;4.90;99.90;;;;;;15170122;23;20359;-36
2023/01/30 05:34:55;;;;;;;21.75;12.13;;;5.00;99.90;;;;;;15174805;23;20032;-37
2023/01/30 05:41:01;;;;;;;16.83;10.82;;;5.00;99.90;;;;;;15197301;23;20026;-37
2023/01/30 05:47:03;;;;;;;19.38;11.30;;;5.10;99.90;;;;;;15199908;23;20101;-36
2023/01/30 05:53:05;;;;;;;16.35;9.82;;;5.00;99.90;;;;;;15193727;23;20022;-36
2023/01/30 05:59:09;;;;;;;12.57;7.22;;;5.10;99.90;;;;;;15199766;23;20591;-37
2023/01/30 06:05:11;;;;;;;9.95;5.78;;;5.20;99.90;;;;;;15195437;23;20132;-36
2023/01/30 06:11:15;;;;;;;9.77;4.85;;;5.30;99.90;;;;;;15176328;23;20105;-37
2023/01/30 06:17:17;;;;;;;8.93;4.10;;;5.30;99.90;;;;;;15206615;23;20523;-37
2023/01/30 06:23:20;;;;;;;7.82;3.92;;;5.20;99.90;;;;;;15203381;23;20028;-37
2023/01/30 06:29:22;;;;;;;9.15;4.60;;;5.20;99.90;;;;;;15206172;23;20905;-39
2023/01/30 06:35:24;;;;;;;6.13;3.67;;;5.30;99.90;;;;;;15201504;23;20030;-36
2023/01/30 06:41:25;;;;;;;6.65;3.70;;;5.30;99.90;;;;;;15203185;23;20466;-36
2023/01/30 06:47:27;;;;;;;7.15;3.40;;;5.30;99.90;;;;;;15203016;23;20161;-37
2023/01/30 06:53:29;;;;;;;8.85;4.25;;;5.30;99.90;;;;;;15199674;23;20022;-37
2023/01/30 06:59:31;;;;;;;14.07;3.42;;;5.30;99.90;;;;;;15203780;23;20033;-37
2023/01/30 07:05:33;;;;;;;14.70;3.90;;;5.30;99.90;;;;;;15202563;23;20750;-37
2023/01/30 07:11:35;;;;;;;12.00;3.00;;;5.30;99.90;;;;;;15200967;23;20459;-37
2023/01/30 07:17:40;;;;;;;15.25;2.72;;;5.50;99.90;;;;;;15200138;23;20447;-37
2023/01/30 07:23:42;;;;;;;7.65;2.38;;;5.40;99.90;;;;;;15202561;23;20033;-37
2023/01/30 07:29:44;;;;;;;10.30;3.63;;;5.40;99.90;;;;;;15199603;23;20022;-36
2023/01/30 07:35:46;;;;;;;14.43;4.30;;;5.30;99.90;;;;;;15199930;23;20026;-37
2023/01/30 07:41:49;;;;;;;18.75;3.00;;;5.30;99.90;;;;;;15172840;23;20080;-37
2023/01/30 07:47:52;;;;;;;21.45;5.07;;;5.40;99.90;;;;;;15197892;23;20028;-37
2023/01/30 07:53:54;;;;;;;10.63;2.83;;;5.50;99.90;;;;;;15197983;23;20478;-36
2023/01/30 07:59:56;;;;;;;14.52;2.47;;;5.40;99.90;;;;;;15201411;23;20463;-37
2023/01/30 08:05:58;;;;;;;13.35;2.13;;;5.40;99.90;;;;;;15196598;23;20453;-37
2023/01/30 08:12:00;;;;;;;10.75;2.30;;;5.40;99.90;;;;;;15198452;23;20018;-37
2023/01/30 08:18:03;;;;;;;16.13;2.22;;;5.50;99.90;;;;;;15199518;23;20022;-36
2023/01/30 08:24:05;;;;;;;12.32;2.38;;;5.40;99.90;;;;;;15201726;23;20033;-36
2023/01/30 08:30:09;;;;;;;15.05;2.10;;;5.50;99.90;;;;;;15195141;23;20451;-37
2023/01/30 08:36:11;;;;;;;17.95;2.38;;;5.50;99.90;;;;;;15141475;23;20094;-36
2023/01/30 08:42:12;;;;;;;15.20;2.30;;;5.60;99.90;;;;;;15197461;23;20029;-37
2023/01/30 08:48:14;;;;;;;18.75;2.50;;;5.60;99.90;;;;;;15201623;23;20025;-37
2023/01/30 08:54:16;;;;;;;19.55;3.22;;;5.60;99.90;;;;;;15197961;23;20104;-37
2023/01/30 09:00:19;;;;;;;15.90;2.38;;;5.60;99.90;;;;;;15201751;23;20026;-36
2023/01/30 09:06:21;;;;;;;20.15;3.53;;;5.70;99.90;;;;;;15195941;23;20037;-36
2023/01/30 09:12:26;;;;;;;11.93;2.47;;;5.70;99.90;;;;;;15198388;23;20056;-36
2023/01/30 09:18:28;;;;;;;18.20;2.40;;;5.80;99.90;;;;;;15199543;23;20100;-36
2023/01/30 09:24:30;;;;;;;13.23;1.70;;;5.80;99.90;;;;;;15195584;23;20467;-36
2023/01/30 09:30:32;;;;;;;13.55;2.40;;;5.80;99.90;;;;;;15193596;23;20325;-37
2023/01/30 09:36:35;;;;;;;15.13;1.75;;;5.80;99.90;;;;;;15201369;23;20026;-36
2023/01/30 09:42:58;;;;;;;13.93;2.25;;;5.80;99.90;;;;;;15193440;23;20030;-37
2023/01/30 09:49:17;;;;;;;21.40;2.38;;;5.90;99.90;;;;;;15194350;23;20022;-37
2023/01/30 09:55:25;;;;;;;18.00;2.65;;;6.10;99.90;;;;;;15171082;23;20096;-37
2023/01/30 10:01:30;;;;;;;18.10;2.33;;;6.10;99.90;;;;;;15195770;23;20030;-37
2023/01/30 10:07:56;;;;;;;17.60;2.50;;;6.10;99.90;;;;;;15192793;23;20097;-36
2023/01/30 10:14:10;;;;;;;17.70;2.20;;;5.90;99.90;;;;;;15193646;23;20363;-37
2023/01/30 10:20:30;;;;;;;14.75;2.05;;;6.00;99.90;;;;;;15199601;23;20142;-36
2023/01/30 10:26:32;;;;;;;21.17;2.90;;;6.00;99.90;;;;;;15195482;23;20033;-36
2023/01/30 10:32:54;;;;;;;18.20;2.20;;;6.10;99.90;;;;;;15194465;23;20353;-36
2023/01/30 10:39:00;;;;;;;19.48;2.72;;;6.20;99.90;;;;;;15197283;23;20022;-36
2023/01/30 10:45:14;;;;;;;14.32;2.00;;;6.20;99.90;;;;;;15198870;23;20029;-36
2023/01/30 10:51:29;;;;;;;18.75;2.17;;;6.10;99.90;;;;;;15189762;23;20018;-36
2023/01/30 10:57:53;;;;;;;16.63;2.58;;;6.10;99.90;;;;;;15199872;23;20034;-36
2023/01/30 11:04:02;;;;;;;14.98;3.53;;;6.00;99.90;;;;;;15197281;23;20025;-36
2023/01/30 11:10:18;;;;;;;17.10;2.72;;;6.10;99.90;;;;;;15198073;23;20080;-36
2023/01/30 11:16:20;;;;;;;14.27;2.30;;;6.10;99.90;;;;;;15203235;23;20030;-36
2023/01/30 11:22:25;;;;;;;16.90;2.50;;;6.10;99.90;;;;;;15202891;23;20034;-36
2023/01/30 11:28:44;;;;;;;23.23;2.78;;;6.30;99.90;;;;;;15176985;23;20029;-36
2023/01/30 11:35:07;;;;;;;20.17;2.90;;;6.30;99.90;;;;;;15201907;23;20018;-36
2023/01/30 11:41:09;;;;;;;23.00;3.45;;;6.10;99.90;;;;;;15201612;23;20460;-36
2023/01/30 11:47:23;;;;;;;14.82;2.80;;;6.30;99.90;;;;;;15199633;23;20325;-36
2023/01/30 11:53:40;;;;;;;12.60;2.05;;;6.30;99.90;;;;;;15202699;23;20021;-36
2023/01/30 11:59:55;;;;;;;18.42;2.50;;;6.10;99.90;;;;;;15199936;23;20044;-36
2023/01/30 12:05:58;;;;;;;18.08;2.83;;;5.60;99.90;;;;;;15193506;23;20068;-36
2023/01/30 12:12:00;;;;;;;21.70;3.30;;;5.30;99.90;;;;;;15201109;23;20026;-35
2023/01/30 12:18:24;;;;;;;22.58;2.65;;;5.10;99.90;;;;;;15196370;23;20105;-36
2023/01/30 12:24:36;;;;;;;10.40;2.28;;;5.10;99.90;;;;;;15196003;23;20124;-36
2023/01/30 12:30:46;;;;;;;20.92;3.15;;;5.30;99.90;;;;;;15199136;23;20100;-36
2023/01/30 12:37:12;;;;;;;13.80;2.20;;;5.30;99.90;;;;;;15199509;23;20324;-36
2023/01/30 12:43:20;;;;;;;12.02;1.60;;;5.10;99.90;;;;;;15201091;23;20026;-36
2023/01/30 12:49:57;;;;;;;15.52;2.35;;;4.50;99.90;;;;;;15192646;23;20049;-37
2023/01/30 12:56:10;;;;;;;8.35;1.67;;;4.80;99.90;;;;;;15195084;23;20033;-36
2023/01/30 13:02:38;;;;;;;15.20;1.92;;;5.10;99.90;;;;;;15200378;23;20077;-37
2023/01/30 13:09:18;;;;;;;6.97;1.25;;;5.30;99.90;;;;;;15190567;23;20351;-38
2023/01/30 13:15:43;;;;;;;10.75;1.23;;;5.40;99.90;;;;;;15189323;23;20032;-36
2023/01/30 13:22:06;;;;;;;12.43;1.67;;;5.40;99.90;;;;;;15200568;23;20033;-36
2023/01/30 13:28:15;;;;;;;10.32;1.73;;;5.60;99.90;;;;;;15169703;23;20133;-36
2023/01/30 13:34:30;;;;;;;15.73;2.15;;;5.70;99.90;;;;;;15195986;23;20021;-36
2023/01/30 13:40:40;;;;;;;16.23;2.10;;;5.90;99.90;;;;;;15198080;23;20081;-36
2023/01/30 13:46:43;;;;;;;11.32;2.13;;;6.20;99.90;;;;;;15198195;23;20100;-36
2023/01/30 13:53:34;;;;;;;13.20;1.98;;;6.30;99.90;;;;;;15169694;23;20403;-36
2023/01/30 14:00:23;;;;;;;13.02;2.00;;;6.10;99.90;;;;;;15174199;23;20026;-36
2023/01/30 14:06:38;;;;;;;11.73;1.65;;;6.30;99.90;;;;;;15182936;23;20435;-36
2023/01/30 14:12:52;;;;;;;8.32;1.70;;;6.30;99.90;;;;;;15197844;23;20118;-36
2023/01/30 14:18:54;;;;;;;13.73;1.67;;;6.30;99.90;;;;;;15197872;23;20032;-36
2023/01/30 14:25:24;;;;;;;11.02;2.35;;;6.30;99.90;;;;;;15195361;23;20352;-36
2023/01/30 14:31:47;;;;;;;9.32;1.27;;;6.30;99.90;;;;;;15175496;23;20352;-36
2023/01/30 14:38:03;;;;;;;11.60;1.73;;;6.30;99.90;;;;;;15198351;23;20029;-35
2023/01/30 14:44:06;;;;;;;11.80;1.83;;;6.30;99.90;;;;;;15177697;23;20026;-35
2023/01/30 14:50:21;;;;;;;10.95;1.98;;;6.20;99.90;;;;;;15195042;23;20347;-37
2023/01/30 14:56:44;;;;;;;12.55;1.50;;;6.20;99.90;;;;;;15192020;23;20028;-37
2023/01/30 15:02:51;;;;;;;11.70;1.85;;;6.10;99.90;;;;;;15199886;23;20100;-37
2023/01/30 15:08:53;;;;;;;12.77;1.77;;;6.10;99.90;;;;;;15174261;23;20022;-36
2023/01/30 15:15:14;;;;;;;12.20;1.70;;;6.10;99.90;;;;;;15197399;23;20363;-36
2023/01/30 15:21:22;;;;;;;8.68;1.30;;;6.20;99.90;;;;;;15203984;23;20038;-37
2023/01/30 15:27:27;;;;;;;13.23;2.28;;;6.10;99.90;;;;;;15193975;23;20028;-36
2023/01/30 15:41:13;;;;;;;15.85;2.15;;;6.10;99.90;;;;;;15160402;23;20751;-36
2023/01/30 15:47:24;;;;;;;9.38;1.45;;;6.20;99.90;;;;;;15152743;23;20018;-36
2023/01/30 15:53:33;;;;;;;14.38;1.92;;;6.10;99.90;;;;;;15139315;23;20025;-37
2023/01/30 15:59:38;;;;;;;12.35;2.05;;;6.10;99.90;;;;;;15131963;23;20329;-36
2023/01/30 16:05:49;;;;;;;14.35;2.22;;;6.10;99.90;;;;;;15137158;23;20033;-37
2023/01/30 16:11:51;;;;;;;15.70;2.13;;;6.10;99.90;;;;;;15132226;23;20513;-37
2023/01/30 16:18:02;;;;;;;17.33;2.40;;;6.00;99.90;;;;;;15140889;23;20026;-36
2023/01/30 16:24:12;;;;;;;13.73;1.77;;;6.00;99.90;;;;;;15136693;23;20359;-37
2023/01/30 16:30:24;;;;;;;20.75;2.58;;;6.00;99.90;;;;;;15108548;23;20020;-36
2023/01/30 16:36:26;;;;;;;16.58;2.45;;;6.00;99.90;;;;;;15143308;23;20105;-37
2023/01/30 16:42:29;;;;;;;16.98;2.30;;;6.00;99.90;;;;;;15168890;23;20101;-36
2023/01/30 16:48:34;;;;;;;10.57;1.70;;;6.00;99.90;;;;;;15197744;23;20054;-37
2023/01/30 16:54:38;;;;;;;9.25;1.40;;;5.60;99.90;;;;;;15198755;23;20026;-36
2023/01/30 17:00:41;;;;;;;9.98;2.03;;;5.10;99.90;;;;;;15197559;23;20073;-36
2023/01/30 17:06:47;;;;;;;8.95;1.85;;;4.90;99.90;;;;;;15193181;23;20026;-36
2023/01/30 17:12:51;;;;;;;15.18;1.75;;;4.80;99.90;;;;;;15201438;23;20018;-36
2023/01/30 17:18:56;;;;;;;11.82;1.58;;;4.80;99.90;;;;;;15204286;23;20077;-36
2023/01/30 17:25:04;;;;;;;10.55;1.75;;;4.60;99.90;;;;;;15165159;23;20030;-37
2023/01/30 17:31:14;;;;;;;14.35;1.70;;;4.50;99.90;;;;;;15196089;23;20026;-36
2023/01/30 17:37:21;;;;;;;18.45;2.25;;;4.50;99.90;;;;;;15191248;23;20104;-36
2023/01/30 17:43:23;;;;;;;23.40;2.90;;;4.70;99.90;;;;;;15129517;23;20018;-37
2023/01/30 17:49:25;;;;;;;17.02;3.83;;;5.00;99.90;;;;;;15140698;23;20029;-36
2023/01/30 17:55:28;;;;;;;17.20;2.58;;;5.10;99.90;;;;;;15132744;23;20026;-36
2023/01/30 18:01:30;;;;;;;26.42;2.92;;;5.30;99.90;;;;;;15139917;23;20117;-37
2023/01/30 18:07:33;;;;;;;17.20;2.40;;;5.30;99.90;;;;;;15131282;23;20053;-37
2023/01/30 18:13:34;;;;;;;18.48;2.22;;;5.30;99.90;;;;;;15126804;23;20080;-37
2023/01/30 18:19:37;;;;;;;17.35;3.03;;;5.10;99.90;;;;;;15113474;23;20025;-37
2023/01/30 18:25:39;;;;;;;21.48;2.95;;;5.30;99.90;;;;;;15104001;23;20150;-37
2023/01/30 18:31:41;;;;;;;22.15;4.07;;;5.30;99.90;;;;;;15132558;23;20391;-36
2023/01/30 18:37:44;;;;;;;11.10;2.78;;;5.30;99.90;;;;;;15142189;23;20029;-36
2023/01/30 18:43:47;;;;;;;22.42;3.05;;;5.40;99.90;;;;;;15198997;23;20343;-37
2023/01/30 18:49:49;;;;;;;28.02;3.45;;;5.40;99.90;;;;;;15199825;23;20070;-36
2023/01/30 18:55:51;;;;;;;31.85;3.40;;;5.40;99.90;;;;;;15198522;23;20105;-37
2023/01/30 19:01:52;;;;;;;26.15;3.10;;;5.40;99.90;;;;;;15199958;23;20111;-36
2023/01/30 19:07:54;;;;;;;23.60;3.55;;;5.40;99.90;;;;;;15200546;23;20160;-36
2023/01/30 19:13:57;;;;;;;25.02;3.33;;;5.40;99.90;;;;;;15200232;23;20028;-37
2023/01/30 19:20:01;;;;;;;19.08;2.60;;;5.40;99.90;;;;;;15200282;23;20034;-36
2023/01/30 19:26:03;;;;;;;15.55;2.42;;;5.30;99.90;;;;;;15201039;23;20030;-36
2023/01/30 19:32:05;;;;;;;20.45;3.58;;;5.30;99.90;;;;;;15200929;23;20104;-36
2023/01/30 19:38:07;;;;;;;27.02;3.17;;;5.30;99.90;;;;;;15185962;23;20076;-36
2023/01/30 19:44:10;;;;;;;22.08;2.67;;;5.30;99.90;;;;;;15132137;23;20022;-37
2023/01/30 19:50:12;;;;;;;17.90;3.25;;;5.20;99.90;;;;;;15090425;23;20155;-36
2023/01/30 19:56:14;;;;;;;27.08;3.67;;;5.10;99.90;;;;;;15141579;23;20045;-37
2023/01/30 20:02:16;;;;;;;17.73;3.45;;;5.20;99.90;;;;;;15108312;23;20467;-37
2023/01/30 20:08:18;;;;;;;18.77;2.70;;;5.20;99.90;;;;;;15137966;23;20032;-36
2023/01/30 20:14:33;;;;;;;;;;;5.20;99.90;;;;;;15142653;23;20061;-37
2023/01/30 20:20:35;;;;;;;19.45;2.75;;;5.10;99.90;;;;;;15135511;23;19920;-37
2023/01/30 20:26:38;;;;;;;21.23;3.45;;;5.00;99.90;;;;;;15145843;23;20100;-37
2023/01/30 20:32:41;;;;;;;19.87;2.53;;;4.90;99.90;;;;;;15138860;23;20041;-37
2023/01/30 20:38:45;;;;;;;18.90;2.35;;;4.80;99.90;;;;;;15166647;23;20395;-37
2023/01/30 20:44:47;;;;;;;15.33;2.87;;;4.60;99.90;;;;;;15175924;23;20032;-36
2023/01/30 20:50:48;;;;;;;23.23;3.20;;;4.70;99.90;;;;;;15196349;23;20443;-37
2023/01/30 20:56:52;;;;;;;15.73;2.08;;;4.90;99.90;;;;;;15192143;23;20056;-36
2023/01/30 21:02:54;;;;;;;16.27;2.63;;;4.90;99.90;;;;;;15198000;23;20482;-36
2023/01/30 21:08:56;;;;;;;19.42;2.63;;;4.90;99.90;;;;;;15175320;23;20463;-36
2023/01/30 21:14:58;;;;;;;17.17;3.20;;;5.00;99.90;;;;;;15201105;23;20447;-36
2023/01/30 21:21:01;;;;;;;24.40;3.10;;;4.90;99.90;;;;;;15199505;23;20467;-37
2023/01/30 21:27:03;;;;;;;24.90;2.88;;;4.90;99.90;;;;;;15200974;23;20097;-36
2023/01/30 21:33:05;;;;;;;21.75;2.75;;;4.90;99.90;;;;;;15194624;23;20146;-36
2023/01/30 21:45:32;;;;;;;17.77;3.05;;;4.70;99.90;;;;;;15149159;23;20034;-36
2023/01/30 21:51:35;;;;;;;14.60;3.90;;;4.70;99.90;;;;;;15142207;23;20396;-36
2023/01/30 21:57:37;;;;;;;16.50;2.33;;;4.50;99.90;;;;;;15137210;23;20061;-36
2023/01/30 22:03:39;;;;;;;21.80;3.17;;;4.50;99.90;;;;;;15133757;23;20458;-37
2023/01/30 22:09:41;;;;;;;23.52;3.28;;;4.50;99.90;;;;;;15137833;23;20648;-36
2023/01/30 22:15:43;;;;;;;21.95;2.85;;;4.40;99.90;;;;;;15131832;23;20022;-36
2023/01/30 22:21:45;;;;;;;22.10;2.90;;;4.40;99.90;;;;;;15110807;23;20040;-37
2023/01/30 22:27:47;;;;;;;19.80;3.38;;;4.40;99.90;;;;;;15133003;23;20029;-37
2023/01/30 22:33:52;;;;;;;29.15;3.10;;;4.50;99.90;;;;;;15132985;23;20093;-37
2023/01/30 22:39:54;;;;;;;19.98;2.58;;;4.40;99.90;;;;;;15172960;23;20036;-36
2023/01/30 22:45:57;;;;;;;18.17;2.60;;;4.50;99.90;;;;;;15200164;23;20080;-36
2023/01/30 22:52:01;;;;;;;21.25;2.83;;;4.40;99.90;;;;;;15196327;23;20512;-36
2023/01/30 22:58:03;;;;;;;19.33;3.28;;;4.40;99.90;;;;;;15200854;23;20101;-37
2023/01/30 23:04:17;;;;;;;27.58;4.47;;;4.30;99.90;;;;;;15200725;23;20026;-36
2023/01/30 23:10:19;;;;;;;23.43;3.17;;;4.20;99.90;;;;;;15198817;23;20028;-36
2023/01/30 23:16:25;;;;;;;24.20;4.22;;;4.10;99.90;;;;;;15201046;23;20246;-36
2023/01/30 23:22:27;;;;;;;23.77;3.10;;;4.10;99.90;;;;;;15201927;23;20080;-36
2023/01/30 23:28:29;;;;;;;12.93;2.58;;;4.00;99.90;;;;;;15202213;23;20097;-36
2023/01/30 23:34:31;;;;;;;20.40;2.45;;;3.90;99.90;;;;;;15197400;23;20359;-36
2023/01/30 23:40:32;;;;;;;19.05;2.42;;;3.90;99.90;;;;;;15160161;23;20344;-36
2023/01/30 23:46:37;;;;;;;21.27;2.25;;;3.90;99.90;;;;;;15156709;23;20073;-36
2023/01/30 23:52:42;;;;;;;18.30;2.88;;;3.90;99.90;;;;;;15138703;23;20057;-36
2023/01/30 23:58:45;;;;;;;24.02;3.10;;;4.00;99.90;;;;;;15132250;23;20058;-36
